Ottoman Nobility — TCDA2 — position and weather

sailwx.info

Track history (hours):
 
Tides and Currents Weather Stations Pressure Air Temp Water Temp Dewpoint Dewpoint Depression Visibility Wind Speed Wind Dir Waves Ship Positions

Ottoman Nobility

Last reported at 2015-Aug-29 23:09 UTC. Time now 2015-Sep-01 03:59 UTC.
Position N 38°08' W 012°10'.

Length 269 m; draft 9.4 m.

Type: Ship. MMSI: 271000773.

Date/timePositionNaut miles runAvg speedWind from/ knotsBaromVisibWave heightAir tempDewpointWater temp
2015-Aug-29 23:09N 38°08' W 012°10'813.9
2015-Aug-29 22:33N 38°16' W 012°07'1414.1
2015-Aug-29 21:33N 38°30' W 012°01'2713.5
2015-Aug-29 19:31N 38°56' W 011°51'1413.8
2015-Aug-29 18:31N 39°09' W 011°45'1313.6
2015-Aug-29 17:33N 39°22' W 011°40'1313.5
2015-Aug-29 16:33N 39°34' W 011°35'1513.2
2015-Aug-29 15:23N 39°49' W 011°29'1113.2
2015-Aug-29 14:31N 40°00' W 011°24'  
2015-Aug-26 20:23N 50°34' E 000°18'1011.6
2015-Aug-26 19:33N 50°37' E 000°32'1111.2
2015-Aug-26 18:33N 50°42' E 000°48'1111.2
2015-Aug-26 17:33N 50°48' E 001°03'1212.1
2015-Aug-26 16:33N 50°55' E 001°18'1312.7
2015-Aug-26 15:33N 51°04' E 001°32'1312.7
2015-Aug-26 14:33N 51°14' E 001°46'1312.5
2015-Aug-26 13:33N 51°24' E 001°56'1111.1
2015-Aug-26 12:33N 51°33' E 002°08'1111.4
2015-Aug-26 11:33N 51°41' E 002°21'4210.6
2015-Aug-26 07:33N 52°03' E 003°19'1313.1
2015-Aug-26 06:33N 52°03' E 003°40'1111.3
2015-Aug-26 05:33N 52°01' E 003°58'7 7.1
2015-Aug-26 04:33N 51°57' E 004°08'0 0.0
2015-Aug-26 03:33N 51°57' E 004°08'0 0.0
2015-Aug-26 02:33N 51°57' E 004°08'0 0.0
2015-Aug-26 01:33N 51°57' E 004°08'0 0.0
2015-Aug-26 00:33N 51°57' E 004°08'0 0.0
2015-Aug-25 23:33N 51°57' E 004°08'0 0.0
2015-Aug-25 22:33N 51°57' E 004°08'0 0.0
2015-Aug-25 21:33N 51°57' E 004°08'0 0.0
2015-Aug-25 20:30N 51°57' E 004°08'0 0.0
2015-Aug-25 19:33N 51°57' E 004°08'0 0.0
2015-Aug-25 18:33N 51°57' E 004°08'0 0.0
2015-Aug-25 17:33N 51°57' E 004°08'0 0.0
2015-Aug-25 16:33N 51°57' E 004°08'0 0.0
2015-Aug-25 15:33N 51°57' E 004°08'0 0.0
2015-Aug-25 14:33N 51°57' E 004°08'0 0.0
2015-Aug-25 13:33N 51°57' E 004°08'0 0.0
2015-Aug-25 12:33N 51°57' E 004°08'0 0.0
2015-Aug-25 11:33N 51°57' E 004°08'0 0.0
2015-Aug-25 10:33N 51°57' E 004°08'0 0.0
2015-Aug-25 09:33N 51°57' E 004°08'0 0.0
2015-Aug-25 08:33N 51°57' E 004°08'0 0.0
2015-Aug-25 07:33N 51°57' E 004°08'0 0.0
2015-Aug-25 06:33N 51°57' E 004°08'0 0.0
2015-Aug-25 05:33N 51°57' E 004°08'0 0.0
2015-Aug-25 04:33N 51°57' E 004°08'0 0.0
2015-Aug-25 03:33N 51°57' E 004°08'0 0.0
2015-Aug-25 02:30N 51°57' E 004°08'0 0.0
2015-Aug-25 01:33N 51°57' E 004°08'0 0.0
2015-Aug-25 00:30N 51°57' E 004°08'0 0.0
2015-Aug-24 23:33N 51°57' E 004°08'0 0.0
2015-Aug-24 22:33N 51°57' E 004°08'2 1.7
2015-Aug-24 21:33N 51°58' E 004°06'8 8.1
2015-Aug-24 20:33N 52°01' E 003°54'8 8.4
2015-Aug-24 19:33N 51°59' E 003°41'1514.2
2015-Aug-24 18:30N 51°56' E 003°17'46 1.5
2015-Aug-23 11:34N 51°31' E 002°15'1111.4
2015-Aug-23 10:33N 51°23' E 002°03'1211.7
2015-Aug-23 09:33N 51°14' E 001°50'1212.0
2015-Aug-23 08:33N 51°05' E 001°38'1312.7
2015-Aug-23 07:33N 50°55' E 001°25'1313.0
2015-Aug-23 06:33N 50°42' E 001°20'1312.0
2015-Aug-23 05:29N 50°33' E 001°06'1211.8
2015-Aug-23 04:30N 50°28' E 000°49'1212.2
2015-Aug-23 03:32N 50°25' E 000°31'1512.6
2015-Aug-23 02:20N 50°21' E 000°08'1113.1
2015-Aug-23 01:31N 50°18' W 000°08'1313.4
2015-Aug-23 00:33N 50°15' W 000°27'1313.3
2015-Aug-22 23:33N 50°12' W 000°48'1313.1
2015-Aug-22 22:33N 50°08' W 001°07'58311.6
2015-Aug-20 20:23N 42°36' W 010°02'16312.4
2015-Aug-20 07:17N 39°59' W 010°60'912.5
2015-Aug-20 06:33N 39°51' W 011°03'1612.4
2015-Aug-20 05:17N 39°35' W 011°08'1012.8
2015-Aug-20 04:30N 39°26' W 011°12'1212.6
2015-Aug-20 03:33N 39°14' W 011°16'1312.5
2015-Aug-20 02:33N 39°02' W 011°20'2512.4
2015-Aug-20 00:31N 38°38' W 011°28'1212.2
2015-Aug-19 23:33N 38°26' W 011°32'  
Track history (hours):
 
Tides and Currents Weather Stations Pressure Air Temp Water Temp Dewpoint Dewpoint Depression Visibility Wind Speed Wind Dir Waves Ship Positions

Ottoman Nobility

Last reported at 2015-Aug-29 23:09 UTC. Time now 2015-Sep-01 03:59 UTC.
Position N 38°08' W 012°10'.

Length 269 m; draft 9.4 m.

Type: Ship. MMSI: 271000773.

Date/timePositionNaut miles runAvg speedWind from/ knotsBaromVisibWave heightAir tempDewpointWater temp
2015-Aug-29 23:09N 38°08' W 012°10'813.9
2015-Aug-29 22:33N 38°16' W 012°07'1414.1
2015-Aug-29 21:33N 38°30' W 012°01'2713.5
2015-Aug-29 19:31N 38°56' W 011°51'1413.8
2015-Aug-29 18:31N 39°09' W 011°45'1313.6
2015-Aug-29 17:33N 39°22' W 011°40'1313.5
2015-Aug-29 16:33N 39°34' W 011°35'1513.2
2015-Aug-29 15:23N 39°49' W 011°29'1113.2
2015-Aug-29 14:31N 40°00' W 011°24'  
2015-Aug-26 20:23N 50°34' E 000°18'1011.6
2015-Aug-26 19:33N 50°37' E 000°32'1111.2
2015-Aug-26 18:33N 50°42' E 000°48'1111.2
2015-Aug-26 17:33N 50°48' E 001°03'1212.1
2015-Aug-26 16:33N 50°55' E 001°18'1312.7
2015-Aug-26 15:33N 51°04' E 001°32'1312.7
2015-Aug-26 14:33N 51°14' E 001°46'1312.5
2015-Aug-26 13:33N 51°24' E 001°56'1111.1
2015-Aug-26 12:33N 51°33' E 002°08'1111.4
2015-Aug-26 11:33N 51°41' E 002°21'4210.6
2015-Aug-26 07:33N 52°03' E 003°19'1313.1
2015-Aug-26 06:33N 52°03' E 003°40'1111.3
2015-Aug-26 05:33N 52°01' E 003°58'7 7.1
2015-Aug-26 04:33N 51°57' E 004°08'0 0.0
2015-Aug-26 03:33N 51°57' E 004°08'0 0.0
2015-Aug-26 02:33N 51°57' E 004°08'0 0.0
2015-Aug-26 01:33N 51°57' E 004°08'0 0.0
2015-Aug-26 00:33N 51°57' E 004°08'0 0.0
2015-Aug-25 23:33N 51°57' E 004°08'0 0.0
2015-Aug-25 22:33N 51°57' E 004°08'0 0.0
2015-Aug-25 21:33N 51°57' E 004°08'0 0.0
2015-Aug-25 20:30N 51°57' E 004°08'0 0.0
2015-Aug-25 19:33N 51°57' E 004°08'0 0.0
2015-Aug-25 18:33N 51°57' E 004°08'0 0.0
2015-Aug-25 17:33N 51°57' E 004°08'0 0.0
2015-Aug-25 16:33N 51°57' E 004°08'0 0.0
2015-Aug-25 15:33N 51°57' E 004°08'0 0.0
2015-Aug-25 14:33N 51°57' E 004°08'0 0.0
2015-Aug-25 13:33N 51°57' E 004°08'0 0.0
2015-Aug-25 12:33N 51°57' E 004°08'0 0.0
2015-Aug-25 11:33N 51°57' E 004°08'0 0.0
2015-Aug-25 10:33N 51°57' E 004°08'0 0.0
2015-Aug-25 09:33N 51°57' E 004°08'0 0.0
2015-Aug-25 08:33N 51°57' E 004°08'0 0.0
2015-Aug-25 07:33N 51°57' E 004°08'0 0.0
2015-Aug-25 06:33N 51°57' E 004°08'0 0.0
2015-Aug-25 05:33N 51°57' E 004°08'0 0.0
2015-Aug-25 04:33N 51°57' E 004°08'0 0.0
2015-Aug-25 03:33N 51°57' E 004°08'0 0.0
2015-Aug-25 02:30N 51°57' E 004°08'0 0.0
2015-Aug-25 01:33N 51°57' E 004°08'0 0.0
2015-Aug-25 00:30N 51°57' E 004°08'0 0.0
2015-Aug-24 23:33N 51°57' E 004°08'0 0.0
2015-Aug-24 22:33N 51°57' E 004°08'2 1.7
2015-Aug-24 21:33N 51°58' E 004°06'8 8.1
2015-Aug-24 20:33N 52°01' E 003°54'8 8.4
2015-Aug-24 19:33N 51°59' E 003°41'1514.2
2015-Aug-24 18:30N 51°56' E 003°17'46 1.5
2015-Aug-23 11:34N 51°31' E 002°15'1111.4
2015-Aug-23 10:33N 51°23' E 002°03'1211.7
2015-Aug-23 09:33N 51°14' E 001°50'1212.0
2015-Aug-23 08:33N 51°05' E 001°38'1312.7
2015-Aug-23 07:33N 50°55' E 001°25'1313.0
2015-Aug-23 06:33N 50°42' E 001°20'1312.0
2015-Aug-23 05:29N 50°33' E 001°06'1211.8
2015-Aug-23 04:30N 50°28' E 000°49'1212.2
2015-Aug-23 03:32N 50°25' E 000°31'1512.6
2015-Aug-23 02:20N 50°21' E 000°08'1113.1
2015-Aug-23 01:31N 50°18' W 000°08'1313.4
2015-Aug-23 00:33N 50°15' W 000°27'1313.3
2015-Aug-22 23:33N 50°12' W 000°48'1313.1
2015-Aug-22 22:33N 50°08' W 001°07'58311.6
2015-Aug-20 20:23N 42°36' W 010°02'16312.4
2015-Aug-20 07:17N 39°59' W 010°60'912.5
2015-Aug-20 06:33N 39°51' W 011°03'1612.4
2015-Aug-20 05:17N 39°35' W 011°08'1012.8
2015-Aug-20 04:30N 39°26' W 011°12'1212.6
2015-Aug-20 03:33N 39°14' W 011°16'1312.5
2015-Aug-20 02:33N 39°02' W 011°20'2512.4
2015-Aug-20 00:31N 38°38' W 011°28'1212.2
2015-Aug-19 23:33N 38°26' W 011°32'  

Dump ship's entire track history